Time;durP1;ratioP1;P1;durP2;ratioP2;P2;SDS_P1;SDS_P2;PMS_P1;PMS_P2;Temp;Humidity;BMP_temperature;BMP_pressure;BME280_temperature;BME280_humidity;BME280_pressure;Samples;Min_cycle;Max_cycle;Signal;HPM_P1;HPM_P2
2024/03/25 00:01:15;;;;;;;5.90;3.90;;;;;;;3.81;77.86;97411.66;226538;1267;22547;-74
2024/03/25 00:06:19;;;;;;;5.90;4.00;;;;;;;3.71;78.25;97411.27;226964;1274;22558;-74
2024/03/25 00:11:21;;;;;;;4.90;4.10;;;;;;;3.62;78.43;97412.85;226594;1267;22876;-74
2024/03/25 00:16:23;;;;;;;4.80;3.90;;;;;;;3.51;78.61;97411.29;226576;1273;22694;-75
2024/03/25 00:21:25;;;;;;;5.10;4.10;;;;;;;3.42;78.74;97411.17;226580;1273;23057;-74
2024/03/25 00:26:30;;;;;;;6.50;4.10;;;;;;;3.33;78.91;97407.26;226544;1274;22722;-74
2024/03/25 00:31:31;;;;;;;6.70;4.20;;;;;;;3.24;78.99;97402.23;226614;1274;22547;-74
2024/03/25 00:36:33;;;;;;;5.30;4.00;;;;;;;3.16;79.30;97398.91;226556;1274;22558;-74
2024/03/25 00:41:35;;;;;;;4.90;3.30;;;;;;;3.10;79.41;97401.98;226354;1273;22568;-74
2024/03/25 00:46:37;;;;;;;4.90;3.70;;;;;;;3.05;79.65;97405.39;226563;1273;22535;-74
2024/03/25 00:51:39;;;;;;;6.60;3.70;;;;;;;3.04;79.37;97398.63;226558;1273;22560;-74
2024/03/25 00:56:40;;;;;;;5.30;3.60;;;;;;;3.02;79.79;97389.60;226602;1270;22739;-74
2024/03/25 01:01:42;;;;;;;5.30;3.50;;;;;;;2.99;80.04;97383.40;226546;1268;25413;-73
2024/03/25 01:06:44;;;;;;;4.40;3.10;;;;;;;2.94;79.91;97384.16;226492;1274;22536;-74
2024/03/25 01:11:46;;;;;;;5.20;2.90;;;;;;;2.88;80.10;97385.93;226580;1272;25426;-75
2024/03/25 01:16:47;;;;;;;3.70;3.00;;;;;;;2.82;80.01;97386.73;226583;1269;22531;-73
2024/03/25 01:21:49;;;;;;;4.00;3.20;;;;;;;2.76;80.17;97385.45;226561;1273;25285;-74
2024/03/25 01:26:51;;;;;;;3.40;2.90;;;;;;;2.70;80.43;97386.10;226544;1268;22583;-73
2024/03/25 01:31:53;;;;;;;3.90;2.90;;;;;;;2.67;80.46;97380.98;226562;1270;22549;-74
2024/03/25 01:36:55;;;;;;;5.40;3.60;;;;;;;2.60;80.83;97377.21;226539;1268;25361;-74
2024/03/25 01:41:57;;;;;;;4.40;3.50;;;;;;;2.58;81.02;97372.46;226526;1266;24255;-74
2024/03/25 01:46:59;;;;;;;4.10;3.60;;;;;;;2.55;81.02;97367.16;226539;1268;22534;-74
2024/03/25 01:52:01;;;;;;;6.00;4.20;;;;;;;2.53;81.33;97371.73;226505;1273;22580;-74
2024/03/25 01:57:03;;;;;;;6.50;4.80;;;;;;;2.52;81.42;97365.48;226557;1272;22606;-75
2024/03/25 02:02:05;;;;;;;5.50;4.50;;;;;;;2.50;81.38;97369.85;226523;1274;22550;-74
2024/03/25 02:07:08;;;;;;;5.10;4.10;;;;;;;2.49;81.60;97368.56;226576;1270;23284;-74
2024/03/25 02:12:10;;;;;;;6.30;4.50;;;;;;;2.50;81.77;97364.48;226667;1267;24287;-74
2024/03/25 02:17:12;;;;;;;6.40;5.20;;;;;;;2.55;81.91;97364.04;226508;1270;26020;-75
2024/03/25 02:22:14;;;;;;;5.20;4.60;;;;;;;2.64;82.05;97358.85;226483;1269;22636;-74
2024/03/25 02:27:16;;;;;;;6.00;5.00;;;;;;;2.73;81.74;97359.75;226507;1272;22565;-74
2024/03/25 02:32:18;;;;;;;5.20;4.70;;;;;;;2.82;82.09;97361.81;226568;1270;22596;-74
2024/03/25 02:37:20;;;;;;;6.60;4.90;;;;;;;2.92;81.98;97359.98;226566;1270;22543;-74
2024/03/25 02:42:22;;;;;;;5.10;4.50;;;;;;;3.01;82.06;97360.65;226142;1272;464004;-74
2024/03/25 02:47:24;;;;;;;5.20;4.10;;;;;;;3.11;81.75;97359.50;226575;1274;22537;-72
2024/03/25 02:52:26;;;;;;;5.50;4.60;;;;;;;3.20;81.75;97361.97;226522;1267;22549;-73
2024/03/25 02:57:28;;;;;;;5.10;4.50;;;;;;;3.28;81.81;97356.61;226560;1267;22559;-73
2024/03/25 03:02:30;;;;;;;5.30;4.60;;;;;;;3.35;81.58;97355.25;226565;1268;22536;-74
2024/03/25 03:07:32;;;;;;;5.90;4.60;;;;;;;3.40;81.71;97352.31;226591;1269;22542;-74
2024/03/25 03:12:34;;;;;;;7.80;4.80;;;;;;;3.46;81.49;97358.98;226574;1267;22547;-74
2024/03/25 03:17:35;;;;;;;6.90;4.40;;;;;;;3.50;81.46;97347.20;226575;1269;22567;-74
2024/03/25 03:22:37;;;;;;;5.30;4.50;;;;;;;3.54;81.37;97348.39;226570;1272;23432;-73
2024/03/25 03:27:39;;;;;;;5.10;3.70;;;;;;;3.59;81.33;97345.08;226528;1270;22543;-75
2024/03/25 03:32:41;;;;;;;4.80;3.70;;;;;;;3.63;81.32;97345.73;226603;1270;23054;-74
2024/03/25 03:37:43;;;;;;;5.70;4.20;;;;;;;3.67;81.43;97344.88;226611;1271;22597;-75
2024/03/25 03:42:45;;;;;;;5.80;4.80;;;;;;;3.71;81.64;97351.36;226593;1273;22584;-75
2024/03/25 03:47:46;;;;;;;5.80;4.50;;;;;;;3.76;81.27;97355.45;226587;1270;25064;-75
2024/03/25 03:52:48;;;;;;;5.40;4.30;;;;;;;3.80;81.48;97359.61;226564;1263;22564;-75
2024/03/25 03:57:50;;;;;;;5.50;4.90;;;;;;;3.83;81.48;97367.62;226484;1271;22668;-75
2024/03/25 04:02:52;;;;;;;5.70;3.90;;;;;;;3.85;81.95;97373.30;226552;1270;23016;-75
2024/03/25 04:07:54;;;;;;;4.40;3.80;;;;;;;3.82;82.19;97372.94;226599;1272;24226;-74
2024/03/25 04:12:56;;;;;;;4.30;3.90;;;;;;;3.77;82.32;97375.30;226539;1273;22598;-74
2024/03/25 04:17:58;;;;;;;5.40;4.10;;;;;;;3.73;82.51;97371.98;226570;1272;22609;-74
2024/03/25 04:23:00;;;;;;;5.70;4.60;;;;;;;3.70;82.28;97375.30;226589;1268;24242;-73
2024/03/25 04:28:02;;;;;;;6.70;4.90;;;;;;;3.68;82.62;97375.55;226566;1272;22548;-73
2024/03/25 04:33:04;;;;;;;5.20;4.70;;;;;;;3.66;82.70;97372.18;226601;1269;22547;-74
2024/03/25 04:38:09;;;;;;;6.00;5.20;;;;;;;3.63;82.74;97373.05;226552;1272;26049;-74
2024/03/25 04:43:11;;;;;;;5.20;4.40;;;;;;;3.60;82.93;97371.73;226589;1267;22899;-73
2024/03/25 04:48:13;;;;;;;5.50;4.90;;;;;;;3.60;83.16;97376.10;226601;1259;22586;-73
2024/03/25 04:53:15;;;;;;;7.30;5.30;;;;;;;3.62;83.43;97371.75;226489;1272;23155;-73
2024/03/25 04:58:17;;;;;;;7.60;5.70;;;;;;;3.63;83.47;97373.14;226473;1272;22565;-73
2024/03/25 05:03:18;;;;;;;6.40;5.10;;;;;;;3.65;83.73;97372.17;226553;1270;22546;-73
2024/03/25 05:08:20;;;;;;;6.70;5.70;;;;;;;3.68;83.86;97373.92;226598;1269;22584;-73
2024/03/25 05:13:22;;;;;;;7.30;5.50;;;;;;;3.72;83.96;97372.98;226583;1270;22564;-75
2024/03/25 05:18:24;;;;;;;7.50;5.80;;;;;;;3.77;83.84;97371.54;226511;1270;22566;-74
2024/03/25 05:23:26;;;;;;;7.20;5.70;;;;;;;3.83;84.03;97375.77;226573;1273;22534;-75
2024/03/25 05:28:28;;;;;;;6.90;5.60;;;;;;;3.90;83.84;97380.06;226554;1269;22539;-73
2024/03/25 05:33:29;;;;;;;6.70;5.00;;;;;;;3.96;83.79;97383.02;226547;1268;22588;-74
2024/03/25 05:38:32;;;;;;;6.50;5.30;;;;;;;4.02;83.80;97388.39;226573;1271;22545;-74
2024/03/25 05:43:34;;;;;;;6.60;4.80;;;;;;;4.09;83.84;97389.79;226563;1270;22537;-74
2024/03/25 05:48:36;;;;;;;6.80;5.40;;;;;;;4.19;84.01;97390.55;226596;1273;22592;-74
2024/03/25 05:53:38;;;;;;;6.90;5.20;;;;;;;4.28;83.66;97394.40;226564;1262;22627;-75
2024/03/25 05:58:40;;;;;;;5.60;4.80;;;;;;;4.34;83.70;97403.11;226570;1269;22547;-75
2024/03/25 06:03:41;;;;;;;6.90;5.40;;;;;;;4.41;83.54;97402.11;226599;1272;22539;-73
2024/03/25 06:08:43;;;;;;;6.60;5.70;;;;;;;4.47;83.42;97407.94;226603;1273;25396;-74
2024/03/25 06:13:47;;;;;;;6.80;5.80;;;;;;;4.57;83.25;97405.01;226286;1274;22707;-73
2024/03/25 06:18:50;;;;;;;6.50;5.10;;;;;;;4.67;83.43;97411.59;226540;1269;22537;-74
2024/03/25 06:23:53;;;;;;;6.80;4.90;;;;;;;4.78;83.32;97416.91;226621;1271;22546;-74
2024/03/25 06:28:55;;;;;;;5.40;4.60;;;;;;;4.95;83.16;97426.39;226593;1273;22496;-74
2024/03/25 06:34:17;;;;;;;5.40;4.70;;;;;;;5.08;82.86;97432.31;226552;1272;22644;-76
2024/03/25 06:39:19;;;;;;;7.30;4.10;;;;;;;5.21;82.42;97438.20;226554;1272;22535;-76
2024/03/25 06:44:20;;;;;;;5.60;4.00;;;;;;;5.38;82.38;97434.69;226594;1272;22565;-75
2024/03/25 06:49:22;;;;;;;4.90;3.50;;;;;;;5.52;81.98;97439.73;226449;1259;25428;-75
2024/03/25 06:54:24;;;;;;;5.70;4.20;;;;;;;5.62;81.75;97446.14;226381;1253;22548;-75
2024/03/25 06:59:26;;;;;;;9.30;4.80;;;;;;;5.69;81.66;97460.17;226449;1255;23073;-76
2024/03/25 07:04:28;;;;;;;4.90;3.10;;;;;;;5.79;81.43;97465.98;226497;1270;22712;-75
2024/03/25 07:09:30;;;;;;;4.30;3.70;;;;;;;5.81;80.94;97468.54;226397;1268;22717;-75
2024/03/25 07:14:32;;;;;;;8.40;4.20;;;;;;;5.91;81.27;97471.15;226316;1253;22598;-76
2024/03/25 07:19:34;;;;;;;5.30;3.80;;;;;;;5.95;80.90;97472.21;226315;1268;22542;-76
2024/03/25 07:24:37;;;;;;;5.40;3.60;;;;;;;5.94;81.25;97481.77;226447;1255;23188;-75
2024/03/25 07:29:39;;;;;;;5.80;3.80;;;;;;;5.88;80.68;97486.36;226260;1265;22566;-77
2024/03/25 07:34:41;;;;;;;6.40;4.20;;;;;;;5.81;80.93;97491.99;226423;1267;22587;-77
2024/03/25 07:39:46;;;;;;;5.30;3.90;;;;;;;5.80;81.10;97490.58;226247;1266;22584;-78
2024/03/25 07:44:48;;;;;;;6.10;4.40;;;;;;;5.73;81.73;97498.99;226279;1268;22601;-77
2024/03/25 07:49:49;;;;;;;5.20;3.70;;;;;;;5.65;81.79;97497.52;226181;1258;22540;-77
2024/03/25 07:54:51;;;;;;;5.10;3.50;;;;;;;5.60;81.90;97500.91;226210;1269;22876;-77
2024/03/25 07:59:53;;;;;;;6.00;4.00;;;;;;;5.71;81.57;97506.68;226367;1254;22538;-76
2024/03/25 08:04:55;;;;;;;5.90;3.30;;;;;;;5.94;81.99;97511.24;226336;1267;22547;-76
2024/03/25 08:09:57;;;;;;;6.10;3.20;;;;;;;6.03;81.52;97515.80;226338;1252;22564;-76
2024/03/25 08:14:58;;;;;;;8.60;6.60;;;;;;;6.08;81.42;97516.85;226409;1259;22948;-76
2024/03/25 08:20:00;;;;;;;3.40;2.80;;;;;;;6.16;81.18;97517.59;226370;1271;22568;-78
2024/03/25 08:25:03;;;;;;;4.90;3.00;;;;;;;6.33;81.33;97524.77;226410;1271;22622;-78
2024/03/25 08:30:05;;;;;;;3.20;2.70;;;;;;;6.48;81.09;97528.05;226361;1270;22559;-78
2024/03/25 08:35:07;;;;;;;3.20;2.40;;;;;;;6.71;81.53;97535.29;226343;1261;22590;-78
2024/03/25 08:40:09;;;;;;;2.50;2.20;;;;;;;6.86;81.17;97538.30;226447;1254;22697;-75
2024/03/25 08:45:11;;;;;;;3.20;2.50;;;;;;;6.93;80.30;97543.40;226196;1259;22534;-79
2024/03/25 08:50:13;;;;;;;2.00;1.70;;;;;;;7.12;80.48;97546.05;226041;1262;22575;-78
2024/03/25 08:55:15;;;;;;;2.10;1.70;;;;;;;7.43;80.43;97547.69;226230;1269;22765;-77
2024/03/25 09:00:18;;;;;;;1.60;1.50;;;;;;;7.74;79.87;97554.42;226207;1266;25435;-77
2024/03/25 09:05:20;;;;;;;1.50;1.40;;;;;;;7.77;79.15;97559.08;226414;1274;22545;-78
2024/03/25 09:15:43;;;;;;;1.70;1.50;;;;;;;8.05;79.84;97556.77;226292;1271;22539;-77
2024/03/25 09:20:45;;;;;;;3.30;1.40;;;;;;;8.24;79.23;97564.30;226323;1253;22899;-78
2024/03/25 09:25:53;;;;;;;1.40;1.30;;;;;;;8.28;78.78;97558.47;226296;1251;22529;-76
2024/03/25 09:30:55;;;;;;;1.40;1.30;;;;;;;8.46;78.23;97565.88;226332;1271;24262;-76
2024/03/25 09:35:57;;;;;;;1.60;1.50;;;;;;;8.46;77.43;97564.63;226389;1266;22552;-78
2024/03/25 09:41:00;;;;;;;2.00;1.70;;;;;;;8.39;76.67;97563.10;226196;1259;22547;-78
2024/03/25 09:46:02;;;;;;;2.90;1.90;;;;;;;8.44;76.72;97560.39;226364;1263;22577;-77
2024/03/25 09:51:07;;;;;;;1.80;1.60;;;;;;;8.43;75.93;97568.86;226175;1263;22550;-79
2024/03/25 09:56:10;;;;;;;1.80;1.70;;;;;;;8.32;75.60;97567.59;226312;1269;24185;-77
2024/03/25 10:01:12;;;;;;;1.80;1.70;;;;;;;8.07;75.19;97573.88;226393;1254;22593;-76
2024/03/25 10:06:14;;;;;;;1.70;1.60;;;;;;;7.79;75.50;97579.27;226240;1273;22579;-77
2024/03/25 10:11:15;;;;;;;1.70;1.60;;;;;;;7.76;75.61;97576.70;226025;1250;22581;-76
2024/03/25 10:16:17;;;;;;;3.40;2.90;;;;;;;7.87;76.06;97582.27;226109;1257;22550;-79
2024/03/25 10:21:20;;;;;;;3.20;2.00;;;;;;;7.63;75.98;97594.39;226084;1263;22545;-77
2024/03/25 10:26:31;;;;;;;1.90;1.20;;;;;;;7.33;76.69;97593.17;226271;1256;23697;-77
2024/03/25 10:31:34;;;;;;;1.50;1.40;;;;;;;7.35;77.55;97593.14;225891;1260;22553;-77
2024/03/25 10:36:36;;;;;;;1.10;1.00;;;;;;;7.55;77.83;97591.38;225829;1267;22755;-77
2024/03/25 10:41:38;;;;;;;1.20;0.90;;;;;;;7.88;77.17;97600.64;225941;1259;24826;-77
2024/03/25 10:46:41;;;;;;;0.90;0.90;;;;;;;7.82;75.74;97613.90;226146;1262;22543;-77
2024/03/25 10:51:44;;;;;;;1.70;1.20;;;;;;;7.44;76.11;97621.58;226503;1269;22545;-77
2024/03/25 10:56:51;;;;;;;1.80;1.20;;;;;;;6.90;76.59;97649.60;226462;1272;22537;-79
2024/03/25 11:01:56;;;;;;;1.50;0.90;;;;;;;6.20;77.48;97639.33;226443;1271;22608;-80
2024/03/25 11:07:12;;;;;;;1.20;1.10;;;;;;;5.71;78.11;97628.98;226238;1262;23104;-76
2024/03/25 11:12:14;;;;;;;3.20;1.60;;;;;;;5.53;79.20;97629.95;226208;1256;22538;-76
2024/03/25 11:17:17;;;;;;;3.70;2.90;;;;;;;5.49;79.74;97628.26;226216;1254;22560;-74
2024/03/25 11:22:25;;;;;;;2.40;2.20;;;;;;;5.53;80.30;97626.85;226199;1253;22547;-75
2024/03/25 11:27:26;;;;;;;2.10;1.70;;;;;;;5.78;80.96;97625.20;226349;1260;22561;-75
2024/03/25 11:32:28;;;;;;;2.30;2.00;;;;;;;6.14;81.74;97623.95;226390;1259;22532;-75
2024/03/25 11:37:30;;;;;;;2.20;1.90;;;;;;;6.55;81.99;97617.13;226323;1253;23297;-74
2024/03/25 11:42:32;;;;;;;1.70;1.60;;;;;;;7.06;82.13;97615.88;226476;1259;24300;-75
2024/03/25 11:47:35;;;;;;;2.20;2.00;;;;;;;7.75;81.89;97611.28;226294;1266;22553;-75
2024/03/25 11:52:36;;;;;;;1.50;1.30;;;;;;;7.98;80.12;97624.86;226393;1256;22594;-78
2024/03/25 11:57:38;;;;;;;0.80;0.80;;;;;;;7.66;78.70;97629.50;226329;1263;22598;-79
2024/03/25 12:02:45;;;;;;;2.10;1.50;;;;;;;7.06;78.93;97629.77;226429;1257;22583;-76
2024/03/25 12:07:51;;;;;;;2.60;1.80;;;;;;;6.76;80.42;97626.73;226340;1253;25378;-76
2024/03/25 12:12:55;;;;;;;2.10;1.90;;;;;;;6.83;81.14;97621.54;226346;1254;22597;-77
2024/03/25 12:17:57;;;;;;;2.10;1.90;;;;;;;7.06;81.44;97618.18;226234;1268;22527;-75
2024/03/25 12:23:02;;;;;;;1.70;1.50;;;;;;;7.53;81.99;97611.92;226325;1272;22574;-79
2024/03/25 12:28:11;;;;;;;1.80;1.70;;;;;;;7.94;81.40;97607.69;226193;1261;23057;-78
2024/03/25 12:33:13;;;;;;;1.20;1.10;;;;;;;8.18;80.33;97618.52;226218;1256;25258;-76
2024/03/25 12:38:23;;;;;;;1.30;1.20;;;;;;;8.22;79.17;97624.31;226287;1269;22541;-77
2024/03/25 12:43:26;;;;;;;1.50;1.40;;;;;;;8.36;78.86;97623.42;226337;1271;23303;-75
2024/03/25 12:48:36;;;;;;;1.80;1.50;;;;;;;8.48;77.86;97619.48;226352;1274;22564;-77
2024/03/25 12:53:38;;;;;;;1.20;1.10;;;;;;;8.49;76.36;97622.81;226300;1271;22568;-76
2024/03/25 12:58:39;;;;;;;1.60;1.40;;;;;;;8.68;75.94;97620.17;226180;1263;22547;-77
2024/03/25 13:03:42;;;;;;;1.00;1.00;;;;;;;8.89;74.91;97620.23;226260;1259;22550;-77
2024/03/25 13:08:44;;;;;;;1.50;1.40;;;;;;;9.14;73.83;97618.90;226376;1253;22546;-77
2024/03/25 13:13:46;;;;;;;2.30;1.80;;;;;;;9.44;73.90;97614.59;226284;1267;25430;-77
2024/03/25 13:18:49;;;;;;;1.50;1.30;;;;;;;9.61;72.70;97620.87;226146;1261;23190;-78
2024/03/25 13:23:54;;;;;;;1.70;1.50;;;;;;;9.72;72.12;97627.67;226385;1251;22539;-78
2024/03/25 13:28:56;;;;;;;1.60;1.50;;;;;;;9.67;71.50;97636.38;226246;1263;22567;-79
2024/03/25 13:33:57;;;;;;;1.60;1.30;;;;;;;9.48;71.00;97636.46;226356;1272;22542;-77
2024/03/25 13:38:59;;;;;;;2.20;1.40;;;;;;;9.30;70.59;97643.21;226437;1260;23452;-80
2024/03/25 13:44:01;;;;;;;1.70;1.60;;;;;;;9.08;70.29;97639.52;226302;1255;22540;-81
2024/03/25 13:49:03;;;;;;;1.70;1.60;;;;;;;8.87;70.22;97650.61;226391;1263;22545;-79
2024/03/25 13:54:05;;;;;;;1.60;1.50;;;;;;;8.62;70.13;97660.16;226245;1271;22540;-80
2024/03/25 13:59:07;;;;;;;2.10;1.90;;;;;;;8.44;70.77;97655.17;226302;1272;22548;-80
2024/03/25 14:04:09;;;;;;;2.00;1.80;;;;;;;8.28;71.10;97658.81;226468;1267;25283;-81
2024/03/25 14:09:22;;;;;;;2.20;2.00;;;;;;;8.16;71.46;97659.20;226436;1272;24240;-80
2024/03/25 14:14:25;;;;;;;2.30;2.10;;;;;;;8.09;71.80;97662.88;226416;1266;22555;-79
2024/03/25 14:19:27;;;;;;;2.30;2.10;;;;;;;8.27;72.41;97670.40;226471;1274;22561;-82
2024/03/25 14:24:29;;;;;;;2.90;2.10;;;;;;;8.40;72.19;97669.55;226304;1272;22570;-82
2024/03/25 14:29:30;;;;;;;3.40;2.20;;;;;;;8.41;72.28;97666.27;226363;1273;22606;-79
2024/03/25 14:34:32;;;;;;;2.10;1.90;;;;;;;8.51;72.13;97677.73;226399;1269;22555;-79
2024/03/25 14:39:34;;;;;;;2.20;2.00;;;;;;;8.64;72.50;97683.20;226309;1264;24291;-79
2024/03/25 14:44:39;;;;;;;2.00;1.80;;;;;;;8.62;72.08;97686.20;226073;1272;237728;-80
2024/03/25 14:49:41;;;;;;;2.40;2.10;;;;;;;8.41;71.97;97699.21;226371;1271;22550;-78
2024/03/25 14:54:43;;;;;;;3.20;2.00;;;;;;;8.08;71.89;97698.73;226208;1267;22733;-77
2024/03/25 14:59:45;;;;;;;2.70;2.30;;;;;;;7.83;72.58;97698.40;226122;1256;23089;-78
2024/03/25 15:04:50;;;;;;;3.90;2.10;;;;;;;7.63;73.08;97699.54;225929;1275;22751;-77
2024/03/25 15:09:52;;;;;;;3.10;2.20;;;;;;;7.64;74.01;97698.86;226141;1275;23629;-78
2024/03/25 15:14:54;;;;;;;3.40;2.60;;;;;;;7.70;74.33;97698.82;226188;1272;22539;-79
2024/03/25 15:19:56;;;;;;;3.80;2.40;;;;;;;7.76;74.44;97702.35;226295;1272;22837;-78
2024/03/25 15:24:58;;;;;;;3.50;2.50;;;;;;;7.72;74.19;97712.69;226229;1275;22544;-78
2024/03/25 15:29:59;;;;;;;3.20;2.60;;;;;;;7.55;74.26;97715.80;226380;1264;22544;-78
2024/03/25 15:35:02;;;;;;;2.80;2.60;;;;;;;7.50;75.19;97719.13;226385;1275;22538;-78
2024/03/25 15:40:09;;;;;;;2.90;2.30;;;;;;;7.48;75.00;97726.33;226415;1275;22592;-77
2024/03/25 15:45:11;;;;;;;2.90;2.60;;;;;;;7.45;75.43;97735.84;226263;1275;22572;-78
2024/03/25 15:50:13;;;;;;;2.90;2.40;;;;;;;7.45;75.42;97743.35;226424;1275;22553;-78
2024/03/25 15:55:15;;;;;;;3.50;2.70;;;;;;;7.43;75.48;97742.56;226443;1275;22547;-78
2024/03/25 16:00:17;;;;;;;3.20;2.70;;;;;;;7.42;75.53;97747.91;226429;1271;22503;-78
2024/03/25 16:05:19;;;;;;;4.30;2.60;;;;;;;7.40;75.86;97749.17;226397;1275;22565;-78
2024/03/25 16:10:26;;;;;;;3.50;2.80;;;;;;;7.41;76.09;97745.83;226499;1275;22554;-78
2024/03/25 16:15:28;;;;;;;3.20;2.90;;;;;;;7.39;75.47;97748.44;226423;1275;24432;-77
2024/03/25 16:20:30;;;;;;;2.70;2.50;;;;;;;7.36;75.63;97756.02;226454;1266;22539;-78
2024/03/25 16:25:33;;;;;;;3.60;3.10;;;;;;;7.31;75.49;97761.27;226568;1275;22534;-78
2024/03/25 16:30:35;;;;;;;4.40;3.30;;;;;;;7.20;75.33;97761.27;226503;1260;22549;-78
2024/03/25 16:35:37;;;;;;;3.30;2.60;;;;;;;7.09;75.98;97770.66;226506;1274;22537;-77
2024/03/25 16:40:39;;;;;;;3.50;2.50;;;;;;;6.95;76.09;97773.09;226526;1267;24589;-78
2024/03/25 16:45:41;;;;;;;3.80;3.30;;;;;;;6.76;75.82;97779.66;226470;1270;22633;-76
2024/03/25 16:50:44;;;;;;;5.40;4.10;;;;;;;6.56;76.19;97786.48;226570;1274;23020;-77
2024/03/25 16:55:49;;;;;;;7.00;4.80;;;;;;;6.39;76.40;97793.27;226391;1273;22569;-77
2024/03/25 17:00:53;;;;;;;6.60;4.80;;;;;;;6.24;76.95;97797.23;226577;1263;22546;-77
2024/03/25 17:05:55;;;;;;;8.90;6.50;;;;;;;6.07;77.25;97803.28;226600;1273;22547;-77
2024/03/25 17:11:08;;;;;;;12.10;7.50;;;;;;;5.91;77.15;97810.77;226547;1274;24261;-77
2024/03/25 17:16:09;;;;;;;8.40;6.40;;;;;;;5.76;77.38;97816.77;226593;1274;23301;-77
2024/03/25 17:21:11;;;;;;;7.90;5.70;;;;;;;5.60;77.61;97823.19;226540;1260;22542;-78
2024/03/25 17:26:13;;;;;;;11.50;8.80;;;;;;;5.45;77.55;97827.29;226394;1273;22546;-78
2024/03/25 17:31:18;;;;;;;11.40;8.60;;;;;;;5.30;78.03;97830.73;226604;1273;23045;-77
2024/03/25 17:36:20;;;;;;;11.90;6.70;;;;;;;5.17;78.14;97830.85;226613;1273;24771;-77
2024/03/25 17:41:22;;;;;;;9.70;7.10;;;;;;;5.05;78.47;97836.52;226459;1251;22550;-77
2024/03/25 17:46:23;;;;;;;7.70;5.90;;;;;;;4.93;78.70;97840.20;226594;1274;22568;-77
2024/03/25 17:51:26;;;;;;;9.60;6.70;;;;;;;4.85;78.95;97844.23;226569;1254;22548;-77
2024/03/25 17:56:28;;;;;;;9.00;6.90;;;;;;;4.77;79.45;97844.44;226663;1274;22571;-78
2024/03/25 18:01:31;;;;;;;11.70;7.80;;;;;;;4.69;79.43;97842.15;226580;1273;23011;-77
2024/03/25 18:06:34;;;;;;;11.20;8.60;;;;;;;4.64;79.90;97841.67;226368;1273;22552;-77
2024/03/25 18:11:36;;;;;;;15.20;9.20;;;;;;;4.62;79.98;97849.21;226540;1256;25300;-77
2024/03/25 18:16:37;;;;;;;15.20;9.60;;;;;;;4.66;79.90;97847.79;226603;1268;22652;-77
2024/03/25 18:21:39;;;;;;;15.20;9.40;;;;;;;4.71;80.42;97850.91;226675;1273;22543;-77
2024/03/25 18:26:41;;;;;;;10.90;7.70;;;;;;;4.77;80.49;97855.56;226555;1273;22546;-78
2024/03/25 18:31:43;;;;;;;12.60;8.20;;;;;;;4.86;80.43;97854.00;226575;1254;23148;-77
2024/03/25 18:36:45;;;;;;;14.10;9.90;;;;;;;4.95;80.21;97858.94;226548;1270;23139;-78
2024/03/25 18:41:46;;;;;;;14.10;9.90;;;;;;;5.03;80.50;97866.09;226542;1273;25336;-78
2024/03/25 18:46:48;;;;;;;15.20;10.60;;;;;;;5.10;80.49;97873.02;226588;1273;24258;-77
2024/03/25 18:51:52;;;;;;;11.60;9.00;;;;;;;5.19;80.65;97877.27;226576;1257;22591;-77
2024/03/25 18:56:54;;;;;;;14.70;12.10;;;;;;;5.25;80.23;97880.55;226695;1274;23399;-78
2024/03/25 19:01:56;;;;;;;17.90;13.20;;;;;;;5.29;80.20;97886.75;226597;1274;23642;-77
2024/03/25 19:06:58;;;;;;;16.50;12.60;;;;;;;5.32;80.05;97892.52;226583;1260;22528;-78
2024/03/25 19:11:59;;;;;;;18.20;12.90;;;;;;;5.35;80.29;97897.89;226567;1273;23452;-79
2024/03/25 19:17:01;;;;;;;25.10;16.20;;;;;;;5.39;80.31;97900.64;226500;1271;22545;-78
2024/03/25 19:22:03;;;;;;;31.50;20.20;;;;;;;5.43;80.04;97901.38;226428;1273;22538;-78
2024/03/25 19:27:05;;;;;;;28.50;18.50;;;;;;;5.45;80.32;97906.48;226516;1274;22537;-76
2024/03/25 19:32:07;;;;;;;24.80;17.50;;;;;;;5.46;80.07;97903.35;226509;1273;22536;-78
2024/03/25 19:37:09;;;;;;;26.10;17.40;;;;;;;5.44;80.17;97905.81;226546;1270;22536;-78
2024/03/25 19:42:11;;;;;;;35.20;23.30;;;;;;;5.42;80.23;97902.75;226509;1274;22546;-77
2024/03/25 19:47:13;;;;;;;29.80;19.20;;;;;;;5.39;79.96;97900.11;226610;1251;24299;-79
2024/03/25 19:52:15;;;;;;;20.50;14.10;;;;;;;5.38;80.19;97901.79;226585;1274;25754;-78
2024/03/25 19:57:17;;;;;;;34.20;22.60;;;;;;;5.35;80.59;97908.20;226550;1270;22547;-78
2024/03/25 20:02:20;;;;;;;36.50;24.10;;;;;;;5.26;80.17;97913.93;226482;1273;22538;-78
2024/03/25 20:07:21;;;;;;;38.50;26.50;;;;;;;5.16;80.50;97914.61;226583;1272;22578;-77
2024/03/25 20:12:23;;;;;;;44.20;29.50;;;;;;;5.09;80.93;97911.94;226521;1267;23059;-78
2024/03/25 20:17:25;;;;;;;41.60;28.80;;;;;;;5.00;81.23;97916.94;226598;1270;22550;-77
2024/03/25 20:22:27;;;;;;;41.60;28.50;;;;;;;4.90;80.89;97922.63;226552;1272;22561;-78
2024/03/25 20:27:29;;;;;;;43.70;29.10;;;;;;;4.81;81.33;97931.88;226532;1269;22596;-78
2024/03/25 20:32:31;;;;;;;44.10;30.00;;;;;;;4.73;81.44;97933.83;226550;1273;22516;-78
2024/03/25 20:37:36;;;;;;;49.60;33.60;;;;;;;4.65;81.64;97936.99;226493;1272;22798;-77
2024/03/25 20:42:38;;;;;;;48.40;32.50;;;;;;;4.57;81.88;97934.76;226555;1270;25108;-78
2024/03/25 20:47:40;;;;;;;53.60;33.10;;;;;;;4.47;81.64;97936.52;226631;1274;22572;-77
2024/03/25 20:52:41;;;;;;;53.20;34.80;;;;;;;4.39;81.70;97943.73;226606;1267;22569;-77
2024/03/25 20:57:44;;;;;;;46.30;31.50;;;;;;;4.33;81.72;97949.13;226538;1272;22545;-77
2024/03/25 21:02:45;;;;;;;47.50;31.10;;;;;;;4.27;81.84;97946.16;226755;1268;22563;-77
2024/03/25 21:07:47;;;;;;;43.60;27.60;;;;;;;4.27;81.96;97951.59;226497;1270;23053;-76
2024/03/25 21:12:49;;;;;;;42.10;27.80;;;;;;;4.28;82.12;97953.48;226502;1253;22549;-77
2024/03/25 21:17:51;;;;;;;51.70;32.30;;;;;;;4.30;82.03;97946.35;226508;1271;22541;-77
2024/03/25 21:22:53;;;;;;;51.80;31.80;;;;;;;4.28;82.30;97948.94;226348;1269;22546;-78
2024/03/25 21:27:54;;;;;;;50.00;31.40;;;;;;;4.22;82.25;97952.44;226451;1254;22553;-78
2024/03/25 21:32:56;;;;;;;44.40;28.80;;;;;;;4.13;82.10;97960.18;226553;1256;22551;-76
2024/03/25 21:37:58;;;;;;;43.40;26.50;;;;;;;4.05;82.24;97957.02;226632;1274;22541;-77
2024/03/25 21:43:00;;;;;;;36.10;22.00;;;;;;;3.98;82.61;97956.23;226618;1263;25412;-76
2024/03/25 21:48:01;;;;;;;37.10;24.50;;;;;;;3.90;82.60;97957.80;226558;1267;22554;-77
2024/03/25 21:53:05;;;;;;;35.10;21.30;;;;;;;3.82;82.77;97959.20;226519;1274;23069;-77
2024/03/25 21:58:06;;;;;;;38.70;24.20;;;;;;;3.76;82.49;97966.48;226540;1273;26150;-77
2024/03/25 22:03:08;;;;;;;41.20;25.30;;;;;;;3.69;82.54;97967.93;226564;1270;22517;-77
2024/03/25 22:08:12;;;;;;;39.70;24.70;;;;;;;3.62;82.82;97970.05;226607;1274;22560;-77
2024/03/25 22:13:14;;;;;;;36.90;24.90;;;;;;;3.59;82.95;97978.27;226561;1252;22562;-77
2024/03/25 22:18:16;;;;;;;36.60;23.40;;;;;;;3.58;82.95;97979.62;226510;1251;22537;-77
2024/03/25 22:23:18;;;;;;;39.40;26.70;;;;;;;3.54;82.96;97976.69;226477;1270;22563;-76
2024/03/25 22:28:21;;;;;;;48.60;30.00;;;;;;;3.44;82.91;97977.98;226501;1267;22538;-77
2024/03/25 22:33:24;;;;;;;48.00;31.60;;;;;;;3.32;82.84;97975.45;226558;1251;22586;-76
2024/03/25 22:38:25;;;;;;;50.00;32.40;;;;;;;3.19;83.01;97976.23;226728;1268;22705;-77
2024/03/25 22:43:28;;;;;;;52.90;34.90;;;;;;;3.07;83.23;97972.63;226554;1270;22628;-77
2024/03/25 22:48:30;;;;;;;67.80;43.20;;;;;;;2.96;83.51;97977.14;226573;1271;23151;-78
2024/03/25 22:53:32;;;;;;;62.50;40.50;;;;;;;2.85;83.52;97978.81;226569;1270;22539;-76
2024/03/25 22:58:36;;;;;;;64.10;43.20;;;;;;;2.73;83.49;97983.73;226563;1270;23037;-78
2024/03/25 23:03:38;;;;;;;76.70;50.00;;;;;;;2.62;83.65;97982.59;226578;1270;22610;-76
2024/03/25 23:08:40;;;;;;;83.90;52.40;;;;;;;2.52;83.88;97987.63;226544;1270;22463;-77
2024/03/25 23:13:43;;;;;;;89.20;53.60;;;;;;;2.43;83.89;97990.80;226549;1272;26020;-77
2024/03/25 23:18:44;;;;;;;81.70;49.40;;;;;;;2.35;84.04;97991.98;226597;1270;22565;-77
2024/03/25 23:23:46;;;;;;;75.50;46.30;;;;;;;2.28;84.17;97990.25;226570;1267;22687;-78
2024/03/25 23:28:48;;;;;;;74.40;43.70;;;;;;;2.22;84.21;97996.44;226441;1273;22952;-77
2024/03/25 23:33:50;;;;;;;65.40;40.70;;;;;;;2.14;84.17;97986.79;226595;1266;24280;-78
2024/03/25 23:38:52;;;;;;;67.60;40.20;;;;;;;2.08;84.34;97984.94;226700;1274;24297;-79